createdAt,value
2022-08-23T00:04:05.713Z,18.50
2022-08-23T00:06:34.189Z,18.40
2022-08-23T00:09:04.781Z,18.50
2022-08-23T00:11:36.021Z,18.50
2022-08-23T00:14:08.402Z,18.50
2022-08-23T00:16:37.100Z,18.50
2022-08-23T00:21:36.567Z,18.30
2022-08-23T00:24:08.087Z,19.10
2022-08-23T00:26:59.265Z,18.50
2022-08-23T00:29:31.067Z,18.40
2022-08-23T00:31:59.625Z,18.40
2022-08-23T00:34:28.371Z,18.40
2022-08-23T00:36:57.474Z,18.40
2022-08-23T00:39:27.778Z,18.50
2022-08-23T00:42:00.455Z,18.60
2022-08-23T00:44:52.295Z,18.40
2022-08-23T00:47:43.268Z,18.40
2022-08-23T00:50:24.383Z,18.40
2022-08-23T00:53:02.550Z,18.40
2022-08-23T00:55:33.014Z,18.40
2022-08-23T00:58:01.818Z,18.40
2022-08-23T01:00:30.594Z,18.40
2022-08-23T01:02:58.973Z,18.40
2022-08-23T01:05:47.343Z,18.40
2022-08-23T01:10:54.588Z,18.30
2022-08-23T01:13:30.081Z,18.30
2022-08-23T01:16:01.946Z,18.20
2022-08-23T01:18:32.590Z,18.30
2022-08-23T01:21:10.529Z,18.20
2022-08-23T01:23:44.615Z,18.60
2022-08-23T01:26:15.418Z,18.30
2022-08-23T01:28:53.677Z,18.30
2022-08-23T01:31:23.979Z,18.30
2022-08-23T01:33:57.501Z,18.30
2022-08-23T01:36:27.046Z,18.20
2022-08-23T01:38:57.390Z,18.50
2022-08-23T01:41:26.219Z,17.80
2022-08-23T01:43:54.588Z,16.60
2022-08-23T01:46:27.048Z,18.20
2022-08-23T01:48:56.638Z,18.40
2022-08-23T01:51:26.663Z,18.30
2022-08-23T01:53:56.422Z,18.20
2022-08-23T01:56:38.788Z,18.20
2022-08-23T01:59:14.173Z,18.10
2022-08-23T02:06:45.663Z,18.00
2022-08-23T02:09:21.001Z,18.10
2022-08-23T02:11:50.234Z,18.10
2022-08-23T02:14:21.500Z,18.00
2022-08-23T02:17:03.870Z,18.10
2022-08-23T02:19:37.989Z,18.10
2022-08-23T02:22:08.833Z,18.10
2022-08-23T02:24:42.422Z,18.10
2022-08-23T02:27:11.054Z,18.10
2022-08-23T02:29:41.995Z,18.10
2022-08-23T02:32:14.119Z,18.20
2022-08-23T02:34:44.500Z,18.10
2022-08-23T02:37:20.895Z,18.10
2022-08-23T02:39:50.741Z,18.00
2022-08-23T02:44:47.729Z,17.90
2022-08-23T02:47:16.346Z,17.60
2022-08-23T02:49:53.752Z,17.90
2022-08-23T03:13:57.597Z,17.80
2022-08-23T03:16:28.081Z,17.90
2022-08-23T03:18:56.451Z,17.90
2022-08-23T03:21:24.833Z,17.90
2022-08-23T03:23:53.690Z,17.90
2022-08-23T03:26:22.878Z,17.60
2022-08-23T03:28:51.435Z,17.90
2022-08-23T03:31:20.800Z,17.90
2022-08-23T03:34:03.751Z,17.90
2022-08-23T03:36:32.177Z,17.90
2022-08-23T03:39:01.514Z,17.90
2022-08-23T03:41:30.758Z,17.80
2022-08-23T03:43:59.163Z,17.80
2022-08-23T03:46:33.885Z,17.80
2022-08-23T03:49:05.571Z,17.80
2022-08-23T03:51:44.339Z,17.80
2022-08-23T03:54:12.658Z,17.70
2022-08-23T03:56:52.190Z,17.80
2022-08-23T03:59:20.854Z,17.70
2022-08-23T04:01:49.952Z,17.70
2022-08-23T04:04:20.302Z,17.70
2022-08-23T04:07:12.688Z,17.70
2022-08-23T04:09:41.361Z,17.50
2022-08-23T04:12:17.760Z,17.70
2022-08-23T04:14:47.728Z,17.70
2022-08-23T04:17:17.820Z,17.70
2022-08-23T04:19:47.736Z,17.30
2022-08-23T04:22:18.096Z,17.60
2022-08-23T04:24:47.267Z,17.60
2022-08-23T04:27:15.751Z,17.60
2022-08-23T04:29:45.086Z,17.70
2022-08-23T04:32:14.802Z,17.50
2022-08-23T04:34:57.729Z,17.60
2022-08-23T04:37:26.202Z,17.50
2022-08-23T04:40:11.761Z,17.60
2022-08-23T04:42:43.796Z,17.80
2022-08-23T04:45:14.199Z,17.70
2022-08-23T04:47:46.445Z,17.70
2022-08-23T04:50:16.881Z,17.60
2022-08-23T04:55:59.325Z,17.60
2022-08-23T04:58:30.586Z,17.60
2022-08-23T05:01:01.078Z,17.60
2022-08-23T05:03:32.075Z,19.10
2022-08-23T05:06:02.291Z,17.60
2022-08-23T05:08:37.355Z,17.60
2022-08-23T05:11:10.130Z,17.40
2022-08-23T05:13:39.075Z,17.60
2022-08-23T05:16:10.389Z,17.60
2022-08-23T05:18:44.908Z,17.30
2022-08-23T05:21:18.675Z,17.60
2022-08-23T05:23:50.878Z,17.70
2022-08-23T05:26:23.212Z,17.60
2022-08-23T05:28:51.761Z,17.70
2022-08-23T05:31:27.440Z,17.60
2022-08-23T05:33:59.847Z,17.60
2022-08-23T05:36:48.359Z,17.60
2022-08-23T05:39:35.513Z,17.80
2022-08-23T05:42:08.495Z,17.70
2022-08-23T05:44:37.344Z,17.70
2022-08-23T05:47:11.244Z,17.60
2022-08-23T05:50:08.052Z,17.70
2022-08-23T05:52:40.433Z,17.70
2022-08-23T05:55:09.177Z,17.70
2022-08-23T06:00:38.030Z,17.70
2022-08-23T06:03:09.398Z,17.50
2022-08-23T06:05:40.649Z,17.80
2022-08-23T06:08:10.727Z,17.90
2022-08-23T06:10:42.208Z,17.80
2022-08-23T06:13:43.887Z,17.80
2022-08-23T06:16:15.302Z,17.70
2022-08-23T06:18:45.933Z,17.00
2022-08-23T06:21:37.393Z,17.90
2022-08-23T06:24:07.824Z,17.90
2022-08-23T06:26:44.684Z,17.90
2022-08-23T06:29:15.083Z,17.90
2022-08-23T06:31:48.969Z,17.90
2022-08-23T06:34:27.133Z,17.90
2022-08-23T06:37:16.502Z,17.90
2022-08-23T06:40:06.432Z,17.90
2022-08-23T06:42:59.757Z,17.80
2022-08-23T06:45:38.412Z,17.90
2022-08-23T06:48:09.645Z,17.90
2022-08-23T06:50:37.911Z,17.90
2022-08-23T06:53:41.709Z,18.10
2022-08-23T06:56:36.313Z,18.00
2022-08-23T06:59:13.745Z,18.00
2022-08-23T07:02:02.339Z,18.00
2022-08-23T07:04:54.230Z,18.00
2022-08-23T07:07:41.333Z,18.00
2022-08-23T07:10:15.231Z,18.10
2022-08-23T07:12:45.292Z,18.10
2022-08-23T07:15:14.871Z,18.10
2022-08-23T07:17:46.013Z,18.10
2022-08-23T07:20:14.744Z,18.10
2022-08-23T07:22:45.721Z,18.10
2022-08-23T07:25:14.833Z,18.10
2022-08-23T07:27:49.561Z,18.10
2022-08-23T07:30:21.189Z,18.20
2022-08-23T07:32:51.611Z,18.20
2022-08-23T07:35:22.763Z,18.20
2022-08-23T07:37:54.068Z,18.30
2022-08-23T07:40:22.485Z,18.30
2022-08-23T07:42:59.036Z,18.40
2022-08-23T07:45:27.833Z,18.20
2022-08-23T07:48:02.467Z,18.30
2022-08-23T07:50:35.816Z,18.30
2022-08-23T07:53:05.222Z,18.10
2022-08-23T07:55:33.632Z,18.30
2022-08-23T23:38:26.849Z,18.80
2022-08-23T23:40:54.943Z,18.80
2022-08-23T23:43:23.051Z,18.80
2022-08-23T23:45:51.173Z,18.80
2022-08-23T23:48:19.262Z,18.80
2022-08-23T23:50:47.287Z,18.80
2022-08-23T23:53:15.830Z,18.70
2022-08-23T23:55:45.301Z,18.70
2022-08-23T23:58:13.702Z,18.70
